Stinesville, IN

3:42 AM EDT on May 27, 2015 (GMT -0400)
GosportINWX | Change Station
CLOSE
Current Station
Personal Weather Station
Location: Gosport, IN
Elevation: 751 ft
Nearby Weather Stations

Elev 751 ft 39.30 °N, 86.70 °W | Updated 29 seconds ago

Clear
Clear
65.5 °F
Feels Like 65.5 °F
N
2.7
Wind Variable Wind from SW
Gusts 2.7 mph

Today
High -- | Low -- °F
--% Chance of Precip.
Yesterday
High -- | Low -- °F
Precip. -- in
6:24 AM 9:03 PM
Waxing Gibbous, 65% visible
Pressure 30.01 in
Visibility 10.0 miles
Clouds Clear
Dew Point 61 °F
Humidity 86%
Rainfall 0.00 in
Snow Depth Not available.
UV 0 out of 12
Pollen 5.90 out of 12
Air Quality Not available.
Flu Activity Sporadic
METAR KBMG 270653Z 23007KT 10SM CLR 19/16 A3002 RMK AO2 SLP160 T01890161

More Conditions Fewer Conditions

Pressure 30.01 in
Visibility 10.0 miles
Clouds Clear
Dew Point 61 °F
Humidity 86%
Rainfall 0.00 in
Snow Depth Not available.
UV 0 out of 12
Pollen 5.90 out of 12
Air Quality Not available.
Flu Activity Sporadic
METAR KBMG 270653Z 23007KT 10SM CLR 19/16 A3002 RMK AO2 SLP160 T01890161

More Conditions Fewer Conditions

10-Day Weather Forecast

Almanac

Astronomy

May. 27, 2015 Rise Set
Actual Time 6:24 AM EDT 9:03 PM EDT
Civil Twilight 5:53 AM EDT 9:34 PM EDT
Nautical Twilight 5:14 AM EDT 10:13 PM EDT
Astronomical Twilight 4:30 AM EDT 10:57 PM EDT
Moon 3:22 PM EDT 3:04 AM EDT
Length of Visible Light 15h 41m
Length of Day
14h 38m
Tomorrow will be 1m 20s longer.
Waxing Gibbous, 65% of the Moon is Illuminated
Today
Waxing Gibbous
Jun 2
Full
Jun 9
Last Quarter
Jun 16
New
Jun 24
First Quarter

Today's Extremes

State Highs State Lows

Community

WunderPhotos

Upload Photos

1,824,632 photos uploaded!

Nearby

Snow Depth

Station Depth Elevation
No new snow has been reported.

Earthquake Activity

City Distance Mag. Time & Date
No recent earthquake activity has been reported nearby.
Minimum magnitude displayed is 2.5.

Coastal Water Temperatures

Place Temperature
No Stations Reporting

Nearby Weather Stations